sensor_id;sensor_type;location;lat;lon;timestamp;P1;durP1;ratioP1;P2;durP2;ratioP2
28920;SDS011;16035;53.594;9.952;2022-10-26T00:00:27;9.33;;;5.30;;
28920;SDS011;16035;53.594;9.952;2022-10-26T00:02:27;12.95;;;5.60;;
28920;SDS011;16035;53.594;9.952;2022-10-26T00:04:28;6.40;;;5.07;;
28920;SDS011;16035;53.594;9.952;2022-10-26T00:06:28;9.67;;;5.40;;
28920;SDS011;16035;53.594;9.952;2022-10-26T00:08:28;12.17;;;6.33;;
28920;SDS011;16035;53.594;9.952;2022-10-26T00:10:29;10.10;;;6.23;;
28920;SDS011;16035;53.594;9.952;2022-10-26T00:12:29;12.07;;;7.57;;
28920;SDS011;16035;53.594;9.952;2022-10-26T00:14:29;16.37;;;7.23;;
28920;SDS011;16035;53.594;9.952;2022-10-26T00:16:30;11.53;;;7.67;;
28920;SDS011;16035;53.594;9.952;2022-10-26T00:18:30;9.93;;;6.90;;
28920;SDS011;16035;53.594;9.952;2022-10-26T00:20:30;8.63;;;5.70;;
28920;SDS011;16035;53.594;9.952;2022-10-26T00:22:31;11.57;;;6.40;;
28920;SDS011;16035;53.594;9.952;2022-10-26T00:24:31;13.53;;;6.67;;
28920;SDS011;16035;53.594;9.952;2022-10-26T00:26:32;12.20;;;6.47;;
28920;SDS011;16035;53.594;9.952;2022-10-26T00:28:32;13.47;;;5.90;;
28920;SDS011;16035;53.594;9.952;2022-10-26T00:30:33;9.03;;;6.13;;
28920;SDS011;16035;53.594;9.952;2022-10-26T00:32:33;6.72;;;4.70;;
28920;SDS011;16035;53.594;9.952;2022-10-26T00:34:34;9.40;;;5.13;;
28920;SDS011;16035;53.594;9.952;2022-10-26T00:36:34;7.77;;;5.63;;
28920;SDS011;16035;53.594;9.952;2022-10-26T00:38:36;13.20;;;6.45;;
28920;SDS011;16035;53.594;9.952;2022-10-26T00:40:37;10.75;;;5.13;;
28920;SDS011;16035;53.594;9.952;2022-10-26T00:42:37;9.53;;;5.23;;
28920;SDS011;16035;53.594;9.952;2022-10-26T00:46:47;7.72;;;5.20;;
28920;SDS011;16035;53.594;9.952;2022-10-26T00:49:01;9.60;;;5.10;;
28920;SDS011;16035;53.594;9.952;2022-10-26T00:51:09;7.00;;;5.20;;
28920;SDS011;16035;53.594;9.952;2022-10-26T00:53:17;9.32;;;5.05;;
28920;SDS011;16035;53.594;9.952;2022-10-26T00:55:19;11.57;;;4.97;;
28920;SDS011;16035;53.594;9.952;2022-10-26T00:57:23;9.45;;;5.20;;
28920;SDS011;16035;53.594;9.952;2022-10-26T00:59:24;8.35;;;5.50;;
28920;SDS011;16035;53.594;9.952;2022-10-26T01:01:25;9.13;;;4.70;;
28920;SDS011;16035;53.594;9.952;2022-10-26T01:03:25;6.50;;;5.20;;
28920;SDS011;16035;53.594;9.952;2022-10-26T01:05:27;8.77;;;5.13;;
28920;SDS011;16035;53.594;9.952;2022-10-26T01:09:28;7.15;;;4.60;;
28920;SDS011;16035;53.594;9.952;2022-10-26T01:11:31;11.20;;;4.82;;
28920;SDS011;16035;53.594;9.952;2022-10-26T01:13:32;10.07;;;5.20;;
28920;SDS011;16035;53.594;9.952;2022-10-26T01:15:37;12.43;;;4.90;;
28920;SDS011;16035;53.594;9.952;2022-10-26T01:17:58;7.90;;;4.75;;
28920;SDS011;16035;53.594;9.952;2022-10-26T01:22:13;7.72;;;4.40;;
28920;SDS011;16035;53.594;9.952;2022-10-26T01:24:28;8.60;;;4.70;;
28920;SDS011;16035;53.594;9.952;2022-10-26T01:31:10;9.10;;;4.90;;
28920;SDS011;16035;53.594;9.952;2022-10-26T01:33:28;6.97;;;4.63;;
28920;SDS011;16035;53.594;9.952;2022-10-26T01:36:38;7.28;;;4.97;;
28920;SDS011;16035;53.594;9.952;2022-10-26T01:42:50;7.45;;;4.78;;
28920;SDS011;16035;53.594;9.952;2022-10-26T01:45:02;7.43;;;5.22;;
28920;SDS011;16035;53.594;9.952;2022-10-26T01:47:06;9.23;;;4.53;;
28920;SDS011;16035;53.594;9.952;2022-10-26T01:49:09;14.45;;;4.80;;
28920;SDS011;16035;53.594;9.952;2022-10-26T01:51:12;8.68;;;4.82;;
28920;SDS011;16035;53.594;9.952;2022-10-26T01:53:14;8.52;;;4.97;;
28920;SDS011;16035;53.594;9.952;2022-10-26T01:57:42;6.00;;;4.15;;
28920;SDS011;16035;53.594;9.952;2022-10-26T02:02:15;8.52;;;4.50;;
28920;SDS011;16035;53.594;9.952;2022-10-26T02:07:01;9.00;;;5.03;;
28920;SDS011;16035;53.594;9.952;2022-10-26T02:09:09;6.22;;;4.00;;
28920;SDS011;16035;53.594;9.952;2022-10-26T02:13:52;13.07;;;5.32;;
28920;SDS011;16035;53.594;9.952;2022-10-26T02:18:29;8.52;;;4.97;;
28920;SDS011;16035;53.594;9.952;2022-10-26T02:20:34;8.38;;;5.38;;
28920;SDS011;16035;53.594;9.952;2022-10-26T02:22:42;8.40;;;4.80;;
28920;SDS011;16035;53.594;9.952;2022-10-26T02:24:46;9.30;;;5.38;;
28920;SDS011;16035;53.594;9.952;2022-10-26T02:26:51;9.20;;;5.28;;
28920;SDS011;16035;53.594;9.952;2022-10-26T02:28:53;13.40;;;5.32;;
28920;SDS011;16035;53.594;9.952;2022-10-26T02:30:57;10.70;;;5.38;;
28920;SDS011;16035;53.594;9.952;2022-10-26T02:32:59;8.30;;;4.65;;
28920;SDS011;16035;53.594;9.952;2022-10-26T02:35:06;10.09;;;5.17;;
28920;SDS011;16035;53.594;9.952;2022-10-26T02:37:07;8.73;;;5.10;;
28920;SDS011;16035;53.594;9.952;2022-10-26T02:39:08;11.90;;;5.35;;
28920;SDS011;16035;53.594;9.952;2022-10-26T02:41:10;7.40;;;5.00;;
28920;SDS011;16035;53.594;9.952;2022-10-26T02:43:14;7.13;;;4.78;;
28920;SDS011;16035;53.594;9.952;2022-10-26T02:45:22;12.60;;;5.07;;
28920;SDS011;16035;53.594;9.952;2022-10-26T02:47:25;9.02;;;5.20;;
28920;SDS011;16035;53.594;9.952;2022-10-26T02:49:26;7.78;;;4.93;;
28920;SDS011;16035;53.594;9.952;2022-10-26T02:53:53;5.70;;;5.00;;
28920;SDS011;16035;53.594;9.952;2022-10-26T02:55:58;10.88;;;5.60;;
28920;SDS011;16035;53.594;9.952;2022-10-26T02:58:07;11.85;;;5.20;;
28920;SDS011;16035;53.594;9.952;2022-10-26T03:00:28;8.88;;;4.97;;
28920;SDS011;16035;53.594;9.952;2022-10-26T03:02:29;9.40;;;5.47;;
28920;SDS011;16035;53.594;9.952;2022-10-26T03:04:30;15.60;;;5.20;;
28920;SDS011;16035;53.594;9.952;2022-10-26T03:06:32;9.60;;;5.05;;
28920;SDS011;16035;53.594;9.952;2022-10-26T03:08:32;7.80;;;5.27;;
28920;SDS011;16035;53.594;9.952;2022-10-26T03:10:33;7.23;;;4.97;;
28920;SDS011;16035;53.594;9.952;2022-10-26T03:12:44;13.40;;;5.13;;
28920;SDS011;16035;53.594;9.952;2022-10-26T03:14:44;9.10;;;5.13;;
28920;SDS011;16035;53.594;9.952;2022-10-26T03:16:45;11.20;;;6.03;;
28920;SDS011;16035;53.594;9.952;2022-10-26T03:18:45;11.17;;;5.50;;
28920;SDS011;16035;53.594;9.952;2022-10-26T03:20:46;15.27;;;6.33;;
28920;SDS011;16035;53.594;9.952;2022-10-26T03:22:46;13.20;;;5.93;;
28920;SDS011;16035;53.594;9.952;2022-10-26T03:24:47;10.38;;;5.28;;
28920;SDS011;16035;53.594;9.952;2022-10-26T03:26:47;13.60;;;5.63;;
28920;SDS011;16035;53.594;9.952;2022-10-26T03:28:48;8.63;;;5.33;;
28920;SDS011;16035;53.594;9.952;2022-10-26T03:30:49;11.90;;;6.15;;
28920;SDS011;16035;53.594;9.952;2022-10-26T03:32:49;8.90;;;5.50;;
28920;SDS011;16035;53.594;9.952;2022-10-26T03:34:50;6.00;;;4.60;;
28920;SDS011;16035;53.594;9.952;2022-10-26T03:36:50;10.10;;;5.30;;
28920;SDS011;16035;53.594;9.952;2022-10-26T03:38:50;10.50;;;5.13;;
28920;SDS011;16035;53.594;9.952;2022-10-26T03:40:51;8.03;;;4.97;;
28920;SDS011;16035;53.594;9.952;2022-10-26T03:42:51;12.27;;;6.20;;
28920;SDS011;16035;53.594;9.952;2022-10-26T03:44:51;10.77;;;5.07;;
28920;SDS011;16035;53.594;9.952;2022-10-26T03:46:52;8.60;;;5.20;;
28920;SDS011;16035;53.594;9.952;2022-10-26T03:48:52;9.50;;;5.70;;
28920;SDS011;16035;53.594;9.952;2022-10-26T03:50:55;6.47;;;4.70;;
28920;SDS011;16035;53.594;9.952;2022-10-26T03:52:57;9.02;;;5.63;;
28920;SDS011;16035;53.594;9.952;2022-10-26T03:54:57;9.03;;;5.23;;
28920;SDS011;16035;53.594;9.952;2022-10-26T03:56:57;8.70;;;5.63;;
28920;SDS011;16035;53.594;9.952;2022-10-26T03:58:58;11.17;;;5.70;;
28920;SDS011;16035;53.594;9.952;2022-10-26T04:00:58;7.63;;;4.87;;
28920;SDS011;16035;53.594;9.952;2022-10-26T04:02:58;10.93;;;5.87;;
28920;SDS011;16035;53.594;9.952;2022-10-26T04:04:59;11.13;;;5.20;;
28920;SDS011;16035;53.594;9.952;2022-10-26T04:06:59;9.20;;;6.03;;
28920;SDS011;16035;53.594;9.952;2022-10-26T04:09:00;7.63;;;5.40;;
28920;SDS011;16035;53.594;9.952;2022-10-26T04:11:01;9.02;;;5.72;;
28920;SDS011;16035;53.594;9.952;2022-10-26T04:13:01;8.37;;;5.93;;
28920;SDS011;16035;53.594;9.952;2022-10-26T04:15:02;6.10;;;4.93;;
28920;SDS011;16035;53.594;9.952;2022-10-26T04:17:03;9.07;;;5.80;;
28920;SDS011;16035;53.594;9.952;2022-10-26T04:19:03;13.67;;;6.03;;
28920;SDS011;16035;53.594;9.952;2022-10-26T04:21:03;15.60;;;6.20;;
28920;SDS011;16035;53.594;9.952;2022-10-26T04:23:10;9.47;;;5.63;;
28920;SDS011;16035;53.594;9.952;2022-10-26T04:25:12;12.27;;;6.57;;
28920;SDS011;16035;53.594;9.952;2022-10-26T04:27:13;12.40;;;7.03;;
28920;SDS011;16035;53.594;9.952;2022-10-26T04:29:13;16.03;;;8.70;;
28920;SDS011;16035;53.594;9.952;2022-10-26T04:31:13;15.27;;;8.43;;
28920;SDS011;16035;53.594;9.952;2022-10-26T04:33:14;13.60;;;7.27;;
28920;SDS011;16035;53.594;9.952;2022-10-26T04:35:14;13.27;;;7.03;;
28920;SDS011;16035;53.594;9.952;2022-10-26T04:37:15;12.60;;;7.97;;
28920;SDS011;16035;53.594;9.952;2022-10-26T04:39:15;13.40;;;7.33;;
28920;SDS011;16035;53.594;9.952;2022-10-26T04:41:15;9.47;;;5.80;;
28920;SDS011;16035;53.594;9.952;2022-10-26T04:43:16;10.03;;;5.23;;
28920;SDS011;16035;53.594;9.952;2022-10-26T04:45:16;13.93;;;8.33;;
28920;SDS011;16035;53.594;9.952;2022-10-26T04:47:16;9.77;;;6.47;;
28920;SDS011;16035;53.594;9.952;2022-10-26T04:49:17;14.20;;;8.40;;
28920;SDS011;16035;53.594;9.952;2022-10-26T04:51:17;12.33;;;7.33;;
28920;SDS011;16035;53.594;9.952;2022-10-26T04:53:17;16.13;;;8.97;;
28920;SDS011;16035;53.594;9.952;2022-10-26T04:55:18;82.13;;;40.07;;
28920;SDS011;16035;53.594;9.952;2022-10-26T04:57:18;34.37;;;18.00;;
28920;SDS011;16035;53.594;9.952;2022-10-26T04:59:18;21.63;;;11.50;;
28920;SDS011;16035;53.594;9.952;2022-10-26T05:01:18;26.13;;;10.20;;
28920;SDS011;16035;53.594;9.952;2022-10-26T05:03:19;22.60;;;9.97;;
28920;SDS011;16035;53.594;9.952;2022-10-26T05:05:20;17.23;;;9.45;;
28920;SDS011;16035;53.594;9.952;2022-10-26T05:07:20;19.70;;;9.97;;
28920;SDS011;16035;53.594;9.952;2022-10-26T05:09:20;19.33;;;10.50;;
28920;SDS011;16035;53.594;9.952;2022-10-26T05:11:21;17.60;;;9.70;;
28920;SDS011;16035;53.594;9.952;2022-10-26T05:13:21;18.83;;;10.80;;
28920;SDS011;16035;53.594;9.952;2022-10-26T05:15:22;19.50;;;10.87;;
28920;SDS011;16035;53.594;9.952;2022-10-26T05:17:22;20.57;;;9.93;;
28920;SDS011;16035;53.594;9.952;2022-10-26T05:19:22;19.53;;;9.83;;
28920;SDS011;16035;53.594;9.952;2022-10-26T05:21:23;19.93;;;9.87;;
28920;SDS011;16035;53.594;9.952;2022-10-26T05:23:23;22.60;;;10.20;;
28920;SDS011;16035;53.594;9.952;2022-10-26T05:25:24;19.57;;;9.40;;
28920;SDS011;16035;53.594;9.952;2022-10-26T05:27:24;20.70;;;9.40;;
28920;SDS011;16035;53.594;9.952;2022-10-26T05:29:24;18.83;;;10.37;;
28920;SDS011;16035;53.594;9.952;2022-10-26T05:31:25;19.10;;;10.60;;
28920;SDS011;16035;53.594;9.952;2022-10-26T05:33:25;18.27;;;9.87;;
28920;SDS011;16035;53.594;9.952;2022-10-26T05:35:25;21.93;;;9.83;;
28920;SDS011;16035;53.594;9.952;2022-10-26T05:37:29;14.67;;;9.10;;
28920;SDS011;16035;53.594;9.952;2022-10-26T05:39:29;17.90;;;9.43;;
28920;SDS011;16035;53.594;9.952;2022-10-26T05:41:30;20.93;;;9.60;;
28920;SDS011;16035;53.594;9.952;2022-10-26T05:43:30;20.07;;;9.37;;
28920;SDS011;16035;53.594;9.952;2022-10-26T05:45:30;18.97;;;9.90;;
28920;SDS011;16035;53.594;9.952;2022-10-26T05:47:31;22.03;;;10.53;;
28920;SDS011;16035;53.594;9.952;2022-10-26T05:49:31;15.97;;;9.37;;
28920;SDS011;16035;53.594;9.952;2022-10-26T05:51:32;18.70;;;9.37;;
28920;SDS011;16035;53.594;9.952;2022-10-26T05:53:33;18.05;;;9.27;;
28920;SDS011;16035;53.594;9.952;2022-10-26T05:55:34;14.57;;;9.67;;
28920;SDS011;16035;53.594;9.952;2022-10-26T05:57:34;17.67;;;9.50;;
28920;SDS011;16035;53.594;9.952;2022-10-26T05:59:35;19.92;;;9.20;;
28920;SDS011;16035;53.594;9.952;2022-10-26T06:01:43;17.57;;;9.03;;
28920;SDS011;16035;53.594;9.952;2022-10-26T06:04:19;20.73;;;9.18;;
28920;SDS011;16035;53.594;9.952;2022-10-26T06:06:44;15.13;;;9.38;;
28920;SDS011;16035;53.594;9.952;2022-10-26T06:08:46;18.45;;;9.70;;
28920;SDS011;16035;53.594;9.952;2022-10-26T06:10:47;18.90;;;10.10;;
28920;SDS011;16035;53.594;9.952;2022-10-26T06:12:48;19.90;;;10.07;;
28920;SDS011;16035;53.594;9.952;2022-10-26T06:14:48;20.47;;;10.10;;
28920;SDS011;16035;53.594;9.952;2022-10-26T06:16:53;21.73;;;10.80;;
28920;SDS011;16035;53.594;9.952;2022-10-26T06:26:33;25.90;;;12.68;;
28920;SDS011;16035;53.594;9.952;2022-10-26T06:31:09;24.38;;;12.30;;
28920;SDS011;16035;53.594;9.952;2022-10-26T06:33:11;25.17;;;13.65;;
28920;SDS011;16035;53.594;9.952;2022-10-26T06:35:24;26.17;;;12.73;;
28920;SDS011;16035;53.594;9.952;2022-10-26T06:37:28;32.35;;;12.95;;
28920;SDS011;16035;53.594;9.952;2022-10-26T06:39:30;27.52;;;12.80;;
28920;SDS011;16035;53.594;9.952;2022-10-26T06:41:35;23.63;;;13.40;;
28920;SDS011;16035;53.594;9.952;2022-10-26T06:43:36;29.67;;;13.27;;
28920;SDS011;16035;53.594;9.952;2022-10-26T06:45:36;30.67;;;14.10;;
28920;SDS011;16035;53.594;9.952;2022-10-26T06:50:01;24.20;;;12.05;;
28920;SDS011;16035;53.594;9.952;2022-10-26T06:52:24;22.67;;;12.35;;
28920;SDS011;16035;53.594;9.952;2022-10-26T06:56:50;22.75;;;12.38;;
28920;SDS011;16035;53.594;9.952;2022-10-26T06:58:52;27.20;;;12.43;;
28920;SDS011;16035;53.594;9.952;2022-10-26T07:00:54;23.00;;;12.27;;
28920;SDS011;16035;53.594;9.952;2022-10-26T07:02:55;18.45;;;10.50;;
28920;SDS011;16035;53.594;9.952;2022-10-26T07:04:57;21.38;;;10.98;;
28920;SDS011;16035;53.594;9.952;2022-10-26T07:06:58;25.20;;;10.83;;
28920;SDS011;16035;53.594;9.952;2022-10-26T07:08:58;19.53;;;10.47;;
28920;SDS011;16035;53.594;9.952;2022-10-26T07:10:58;19.43;;;10.07;;
28920;SDS011;16035;53.594;9.952;2022-10-26T07:12:59;15.70;;;9.20;;
28920;SDS011;16035;53.594;9.952;2022-10-26T07:14:59;13.10;;;8.53;;
28920;SDS011;16035;53.594;9.952;2022-10-26T07:17:00;21.63;;;9.37;;
28920;SDS011;16035;53.594;9.952;2022-10-26T07:19:00;17.47;;;9.53;;
28920;SDS011;16035;53.594;9.952;2022-10-26T07:21:01;17.13;;;9.23;;
28920;SDS011;16035;53.594;9.952;2022-10-26T07:23:01;16.40;;;8.97;;
28920;SDS011;16035;53.594;9.952;2022-10-26T07:25:01;19.83;;;9.20;;
28920;SDS011;16035;53.594;9.952;2022-10-26T07:27:02;16.07;;;8.80;;
28920;SDS011;16035;53.594;9.952;2022-10-26T07:29:02;19.43;;;9.33;;
28920;SDS011;16035;53.594;9.952;2022-10-26T07:31:03;19.20;;;9.53;;
28920;SDS011;16035;53.594;9.952;2022-10-26T07:33:08;14.88;;;9.02;;
28920;SDS011;16035;53.594;9.952;2022-10-26T07:35:10;11.25;;;7.47;;
28920;SDS011;16035;53.594;9.952;2022-10-26T07:37:11;13.70;;;8.40;;
28920;SDS011;16035;53.594;9.952;2022-10-26T07:39:17;14.91;;;8.14;;
28920;SDS011;16035;53.594;9.952;2022-10-26T07:41:17;15.17;;;9.17;;
28920;SDS011;16035;53.594;9.952;2022-10-26T07:43:18;14.63;;;8.38;;
28920;SDS011;16035;53.594;9.952;2022-10-26T07:45:19;22.87;;;8.70;;
28920;SDS011;16035;53.594;9.952;2022-10-26T07:47:19;13.07;;;7.90;;
28920;SDS011;16035;53.594;9.952;2022-10-26T07:49:19;14.23;;;7.60;;
28920;SDS011;16035;53.594;9.952;2022-10-26T07:51:20;15.20;;;7.87;;
28920;SDS011;16035;53.594;9.952;2022-10-26T07:53:20;13.70;;;7.20;;
28920;SDS011;16035;53.594;9.952;2022-10-26T07:55:20;16.17;;;7.43;;
28920;SDS011;16035;53.594;9.952;2022-10-26T07:57:21;14.75;;;7.53;;
28920;SDS011;16035;53.594;9.952;2022-10-26T07:59:21;12.53;;;7.93;;
28920;SDS011;16035;53.594;9.952;2022-10-26T08:01:21;12.13;;;7.77;;
28920;SDS011;16035;53.594;9.952;2022-10-26T08:03:22;11.03;;;7.30;;
28920;SDS011;16035;53.594;9.952;2022-10-26T08:05:23;15.50;;;8.50;;
28920;SDS011;16035;53.594;9.952;2022-10-26T08:07:23;12.93;;;7.90;;
28920;SDS011;16035;53.594;9.952;2022-10-26T08:11:25;10.10;;;6.37;;
28920;SDS011;16035;53.594;9.952;2022-10-26T08:13:25;14.23;;;6.80;;
28920;SDS011;16035;53.594;9.952;2022-10-26T08:15:26;16.30;;;7.40;;
28920;SDS011;16035;53.594;9.952;2022-10-26T08:17:27;13.80;;;7.80;;
28920;SDS011;16035;53.594;9.952;2022-10-26T08:19:28;13.73;;;7.30;;
28920;SDS011;16035;53.594;9.952;2022-10-26T08:21:28;14.30;;;7.27;;
28920;SDS011;16035;53.594;9.952;2022-10-26T08:23:28;12.87;;;6.70;;
28920;SDS011;16035;53.594;9.952;2022-10-26T08:25:29;11.87;;;7.00;;
28920;SDS011;16035;53.594;9.952;2022-10-26T08:27:29;13.10;;;6.93;;
28920;SDS011;16035;53.594;9.952;2022-10-26T08:29:29;15.00;;;6.77;;
28920;SDS011;16035;53.594;9.952;2022-10-26T08:31:30;12.10;;;5.77;;
28920;SDS011;16035;53.594;9.952;2022-10-26T08:33:30;9.67;;;5.50;;
28920;SDS011;16035;53.594;9.952;2022-10-26T08:35:31;11.20;;;6.23;;
28920;SDS011;16035;53.594;9.952;2022-10-26T08:37:32;19.38;;;7.10;;
28920;SDS011;16035;53.594;9.952;2022-10-26T08:39:32;12.23;;;6.33;;
28920;SDS011;16035;53.594;9.952;2022-10-26T08:41:36;11.50;;;6.83;;
28920;SDS011;16035;53.594;9.952;2022-10-26T08:45:53;7.13;;;5.10;;
28920;SDS011;16035;53.594;9.952;2022-10-26T08:47:59;12.75;;;6.10;;
28920;SDS011;16035;53.594;9.952;2022-10-26T08:50:07;11.50;;;5.70;;
28920;SDS011;16035;53.594;9.952;2022-10-26T08:52:13;9.57;;;6.15;;
28920;SDS011;16035;53.594;9.952;2022-10-26T08:56:38;8.80;;;5.07;;
28920;SDS011;16035;53.594;9.952;2022-10-26T08:58:45;9.55;;;5.03;;
28920;SDS011;16035;53.594;9.952;2022-10-26T09:00:51;13.63;;;5.95;;
28920;SDS011;16035;53.594;9.952;2022-10-26T09:02:52;13.40;;;5.55;;
28920;SDS011;16035;53.594;9.952;2022-10-26T09:04:53;15.13;;;5.45;;
28920;SDS011;16035;53.594;9.952;2022-10-26T09:07:00;12.07;;;5.50;;
28920;SDS011;16035;53.594;9.952;2022-10-26T09:09:20;9.18;;;5.07;;
28920;SDS011;16035;53.594;9.952;2022-10-26T09:16:07;9.65;;;5.45;;
28920;SDS011;16035;53.594;9.952;2022-10-26T09:18:28;6.30;;;4.65;;
28920;SDS011;16035;53.594;9.952;2022-10-26T09:20:48;8.82;;;5.45;;
28920;SDS011;16035;53.594;9.952;2022-10-26T09:22:59;9.15;;;5.28;;
28920;SDS011;16035;53.594;9.952;2022-10-26T09:25:21;12.77;;;4.68;;
28920;SDS011;16035;53.594;9.952;2022-10-26T09:29:28;11.10;;;4.67;;
28920;SDS011;16035;53.594;9.952;2022-10-26T09:31:34;12.23;;;4.85;;
28920;SDS011;16035;53.594;9.952;2022-10-26T09:33:39;5.63;;;3.70;;
28920;SDS011;16035;53.594;9.952;2022-10-26T09:35:42;7.03;;;4.30;;
28920;SDS011;16035;53.594;9.952;2022-10-26T09:38:01;8.68;;;4.57;;
28920;SDS011;16035;53.594;9.952;2022-10-26T09:44:20;9.80;;;4.57;;
28920;SDS011;16035;53.594;9.952;2022-10-26T09:46:48;6.97;;;4.22;;
28920;SDS011;16035;53.594;9.952;2022-10-26T09:49:05;9.10;;;3.80;;
28920;SDS011;16035;53.594;9.952;2022-10-26T09:51:07;7.18;;;3.85;;
28920;SDS011;16035;53.594;9.952;2022-10-26T09:53:07;6.97;;;3.90;;
28920;SDS011;16035;53.594;9.952;2022-10-26T09:55:11;8.68;;;4.20;;
28920;SDS011;16035;53.594;9.952;2022-10-26T09:57:13;9.55;;;3.85;;
28920;SDS011;16035;53.594;9.952;2022-10-26T09:59:15;7.85;;;3.45;;
28920;SDS011;16035;53.594;9.952;2022-10-26T10:03:31;5.43;;;3.90;;
28920;SDS011;16035;53.594;9.952;2022-10-26T10:05:33;9.23;;;3.97;;
28920;SDS011;16035;53.594;9.952;2022-10-26T10:07:34;7.22;;;3.55;;
28920;SDS011;16035;53.594;9.952;2022-10-26T10:09:34;7.77;;;3.67;;
28920;SDS011;16035;53.594;9.952;2022-10-26T10:11:39;6.83;;;3.57;;
28920;SDS011;16035;53.594;9.952;2022-10-26T10:13:44;9.00;;;4.25;;
28920;SDS011;16035;53.594;9.952;2022-10-26T10:16:19;3.97;;;3.30;;
28920;SDS011;16035;53.594;9.952;2022-10-26T10:18:21;7.90;;;3.33;;
28920;SDS011;16035;53.594;9.952;2022-10-26T10:20:28;4.95;;;3.50;;
28920;SDS011;16035;53.594;9.952;2022-10-26T10:22:31;10.15;;;3.25;;
28920;SDS011;16035;53.594;9.952;2022-10-26T10:24:32;7.47;;;3.07;;
28920;SDS011;16035;53.594;9.952;2022-10-26T10:26:38;7.25;;;3.45;;
28920;SDS011;16035;53.594;9.952;2022-10-26T10:29:01;8.23;;;3.58;;
28920;SDS011;16035;53.594;9.952;2022-10-26T10:35:32;3.80;;;3.00;;
28920;SDS011;16035;53.594;9.952;2022-10-26T10:39:43;8.13;;;3.38;;
28920;SDS011;16035;53.594;9.952;2022-10-26T10:41:43;4.60;;;3.13;;
28920;SDS011;16035;53.594;9.952;2022-10-26T10:43:48;8.05;;;3.60;;
28920;SDS011;16035;53.594;9.952;2022-10-26T10:45:54;6.60;;;3.58;;
28920;SDS011;16035;53.594;9.952;2022-10-26T10:48:04;7.07;;;4.00;;
28920;SDS011;16035;53.594;9.952;2022-10-26T10:50:16;6.82;;;3.42;;
28920;SDS011;16035;53.594;9.952;2022-10-26T10:52:29;9.48;;;4.13;;
28920;SDS011;16035;53.594;9.952;2022-10-26T10:54:31;5.30;;;3.72;;
28920;SDS011;16035;53.594;9.952;2022-10-26T10:56:37;5.80;;;3.92;;
28920;SDS011;16035;53.594;9.952;2022-10-26T11:00:50;8.15;;;4.60;;
28920;SDS011;16035;53.594;9.952;2022-10-26T11:05:04;7.65;;;3.47;;
28920;SDS011;16035;53.594;9.952;2022-10-26T11:07:29;13.05;;;4.00;;
28920;SDS011;16035;53.594;9.952;2022-10-26T11:09:36;4.82;;;3.28;;
28920;SDS011;16035;53.594;9.952;2022-10-26T11:11:49;6.85;;;3.85;;
28920;SDS011;16035;53.594;9.952;2022-10-26T11:14:02;12.32;;;3.85;;
28920;SDS011;16035;53.594;9.952;2022-10-26T11:16:04;5.80;;;3.33;;
28920;SDS011;16035;53.594;9.952;2022-10-26T11:18:17;11.38;;;3.60;;
28920;SDS011;16035;53.594;9.952;2022-10-26T11:20:31;5.22;;;3.10;;
28920;SDS011;16035;53.594;9.952;2022-10-26T11:22:53;5.20;;;3.28;;
28920;SDS011;16035;53.594;9.952;2022-10-26T11:29:18;7.28;;;3.40;;
28920;SDS011;16035;53.594;9.952;2022-10-26T11:31:41;7.75;;;3.65;;
28920;SDS011;16035;53.594;9.952;2022-10-26T11:34:00;4.77;;;3.13;;
28920;SDS011;16035;53.594;9.952;2022-10-26T11:36:05;15.65;;;3.53;;
28920;SDS011;16035;53.594;9.952;2022-10-26T11:38:13;5.05;;;2.88;;
28920;SDS011;16035;53.594;9.952;2022-10-26T11:40:23;8.32;;;3.90;;
28920;SDS011;16035;53.594;9.952;2022-10-26T11:42:45;5.03;;;3.28;;
28920;SDS011;16035;53.594;9.952;2022-10-26T11:45:07;6.72;;;3.80;;
28920;SDS011;16035;53.594;9.952;2022-10-26T11:47:15;5.40;;;3.10;;
28920;SDS011;16035;53.594;9.952;2022-10-26T11:54:08;8.95;;;3.30;;
28920;SDS011;16035;53.594;9.952;2022-10-26T11:56:30;9.23;;;3.42;;
28920;SDS011;16035;53.594;9.952;2022-10-26T11:58:37;5.45;;;3.10;;
28920;SDS011;16035;53.594;9.952;2022-10-26T12:02:54;7.60;;;3.20;;
28920;SDS011;16035;53.594;9.952;2022-10-26T12:07:21;9.90;;;3.17;;
28920;SDS011;16035;53.594;9.952;2022-10-26T12:09:30;6.38;;;2.65;;
28920;SDS011;16035;53.594;9.952;2022-10-26T12:23:03;8.70;;;3.97;;
28920;SDS011;16035;53.594;9.952;2022-10-26T12:27:29;7.75;;;3.25;;
28920;SDS011;16035;53.594;9.952;2022-10-26T12:29:46;3.85;;;2.50;;
28920;SDS011;16035;53.594;9.952;2022-10-26T12:31:48;3.80;;;2.35;;
28920;SDS011;16035;53.594;9.952;2022-10-26T12:33:49;7.87;;;2.50;;
28920;SDS011;16035;53.594;9.952;2022-10-26T12:35:49;4.70;;;2.38;;
28920;SDS011;16035;53.594;9.952;2022-10-26T12:37:50;2.90;;;1.80;;
28920;SDS011;16035;53.594;9.952;2022-10-26T12:39:50;4.83;;;1.90;;
28920;SDS011;16035;53.594;9.952;2022-10-26T12:41:54;3.13;;;2.30;;
28920;SDS011;16035;53.594;9.952;2022-10-26T12:46:47;3.80;;;1.85;;
28920;SDS011;16035;53.594;9.952;2022-10-26T12:48:48;7.10;;;1.87;;
28920;SDS011;16035;53.594;9.952;2022-10-26T12:50:50;6.32;;;2.30;;
28920;SDS011;16035;53.594;9.952;2022-10-26T12:53:09;9.80;;;1.95;;
28920;SDS011;16035;53.594;9.952;2022-10-26T12:59:56;2.78;;;1.75;;
28920;SDS011;16035;53.594;9.952;2022-10-26T13:07:22;4.32;;;1.90;;
28920;SDS011;16035;53.594;9.952;2022-10-26T13:09:21;3.47;;;1.92;;
28920;SDS011;16035;53.594;9.952;2022-10-26T13:11:29;6.40;;;2.30;;
28920;SDS011;16035;53.594;9.952;2022-10-26T13:13:33;4.25;;;1.98;;
28920;SDS011;16035;53.594;9.952;2022-10-26T13:15:38;5.40;;;1.83;;
28920;SDS011;16035;53.594;9.952;2022-10-26T13:17:40;3.38;;;1.75;;
28920;SDS011;16035;53.594;9.952;2022-10-26T13:19:42;3.70;;;1.83;;
28920;SDS011;16035;53.594;9.952;2022-10-26T13:21:45;3.67;;;1.95;;
28920;SDS011;16035;53.594;9.952;2022-10-26T13:26:04;3.80;;;2.13;;
28920;SDS011;16035;53.594;9.952;2022-10-26T13:30:46;6.18;;;2.00;;
28920;SDS011;16035;53.594;9.952;2022-10-26T13:32:48;3.28;;;1.75;;
28920;SDS011;16035;53.594;9.952;2022-10-26T13:34:55;5.22;;;1.85;;
28920;SDS011;16035;53.594;9.952;2022-10-26T13:37:14;5.43;;;1.73;;
28920;SDS011;16035;53.594;9.952;2022-10-26T13:39:40;3.28;;;1.70;;
28920;SDS011;16035;53.594;9.952;2022-10-26T13:41:43;6.15;;;1.75;;
28920;SDS011;16035;53.594;9.952;2022-10-26T13:43:46;3.50;;;1.73;;
28920;SDS011;16035;53.594;9.952;2022-10-26T13:50:14;3.00;;;1.48;;
28920;SDS011;16035;53.594;9.952;2022-10-26T13:52:23;4.90;;;1.73;;
28920;SDS011;16035;53.594;9.952;2022-10-26T13:54:52;4.88;;;1.77;;
28920;SDS011;16035;53.594;9.952;2022-10-26T13:57:00;3.15;;;1.90;;
28920;SDS011;16035;53.594;9.952;2022-10-26T13:59:13;3.95;;;1.50;;
28920;SDS011;16035;53.594;9.952;2022-10-26T14:01:15;5.90;;;1.90;;
28920;SDS011;16035;53.594;9.952;2022-10-26T14:03:17;5.97;;;1.98;;
28920;SDS011;16035;53.594;9.952;2022-10-26T14:05:20;4.22;;;1.60;;
28920;SDS011;16035;53.594;9.952;2022-10-26T14:07:23;3.25;;;1.58;;
28920;SDS011;16035;53.594;9.952;2022-10-26T14:09:28;4.20;;;1.70;;
28920;SDS011;16035;53.594;9.952;2022-10-26T14:11:33;4.78;;;1.70;;
28920;SDS011;16035;53.594;9.952;2022-10-26T14:13:36;3.15;;;1.42;;
28920;SDS011;16035;53.594;9.952;2022-10-26T14:15:37;3.13;;;1.35;;
28920;SDS011;16035;53.594;9.952;2022-10-26T14:17:42;3.22;;;1.60;;
28920;SDS011;16035;53.594;9.952;2022-10-26T14:19:50;5.10;;;1.92;;
28920;SDS011;16035;53.594;9.952;2022-10-26T14:23:56;6.77;;;1.57;;
28920;SDS011;16035;53.594;9.952;2022-10-26T14:25:58;5.10;;;1.48;;
28920;SDS011;16035;53.594;9.952;2022-10-26T14:27:58;2.87;;;1.30;;
28920;SDS011;16035;53.594;9.952;2022-10-26T14:29:59;4.03;;;1.30;;